Time;durP1;ratioP1;P1;durP2;ratioP2;P2;SDS_P1;SDS_P2;PMS_P1;PMS_P2;Temp;Humidity;BMP_temperature;BMP_pressure;BME280_temperature;BME280_humidity;BME280_pressure;Samples;Min_cycle;Max_cycle;Signal;HPM_P1;HPM_P2
2023/03/13 00:11:07;;;;;;;18.73;17.17;;;11.20;99.90;;;;;;5012286;28;20030;-95
2023/03/13 00:13:47;;;;;;;19.20;17.38;;;11.10;99.90;;;;;;5085890;23;20065;-94
2023/03/13 00:32:39;;;;;;;20.77;18.85;;;10.90;99.90;;;;;;5416021;23;20087;-93
2023/03/13 00:35:07;;;;;;;24.70;18.80;;;10.80;99.90;;;;;;5000218;28;20029;-92
2023/03/13 00:37:34;;;;;;;20.83;18.92;;;10.80;99.90;;;;;;5001945;28;20045;-93
2023/03/13 00:40:03;;;;;;;20.42;18.63;;;10.80;99.90;;;;;;4995104;28;20058;-92
2023/03/13 00:42:32;;;;;;;19.98;18.20;;;10.80;99.90;;;;;;4999126;28;20030;-93
2023/03/13 00:44:59;;;;;;;20.63;18.73;;;10.80;99.90;;;;;;4981720;28;20026;-94
2023/03/13 00:47:26;;;;;;;19.77;18.27;;;10.80;99.90;;;;;;4981862;28;20037;-93
2023/03/13 00:49:53;;;;;;;19.60;18.23;;;10.80;99.90;;;;;;4998033;28;20058;-92
2023/03/13 00:52:20;;;;;;;20.65;18.80;;;10.80;99.90;;;;;;4981529;28;20025;-92
2023/03/13 00:55:03;;;;;;;20.27;18.33;;;10.80;99.90;;;;;;4989252;28;20026;-93
2023/03/13 01:00:33;;;;;;;19.58;18.23;;;10.80;99.90;;;;;;5581031;23;20062;-93
2023/03/13 01:03:00;;;;;;;20.00;18.55;;;10.80;99.90;;;;;;5000329;28;20032;-92
2023/03/13 01:05:30;;;;;;;27.80;19.83;;;10.70;99.90;;;;;;5000487;28;20112;-92
2023/03/13 01:08:02;;;;;;;20.17;18.75;;;10.70;99.90;;;;;;5003049;28;20030;-92
2023/03/13 01:10:29;;;;;;;19.98;18.23;;;10.70;99.90;;;;;;5000967;28;20029;-93
2023/03/13 01:13:16;;;;;;;20.08;18.52;;;10.70;99.90;;;;;;5000438;28;20359;-92
2023/03/13 01:15:46;;;;;;;21.00;19.30;;;10.60;99.90;;;;;;5004052;28;20116;-92
2023/03/13 01:18:43;;;;;;;21.02;19.27;;;10.60;99.90;;;;;;5019106;23;20054;-92
2023/03/13 01:21:46;;;;;;;20.77;19.00;;;10.50;99.90;;;;;;5051067;23;20050;-92
2023/03/13 06:01:23;;;;;;;18.52;17.35;;;11.60;99.90;;;;;;6034994;23;20029;-93
2023/03/13 06:51:45;;;;;;;22.10;20.50;;;15.50;99.90;;;;;;4982079;28;20460;-95
2023/03/13 06:54:12;;;;;;;22.85;21.00;;;15.70;99.90;;;;;;4985734;28;20034;-94
2023/03/13 06:56:38;;;;;;;23.00;21.25;;;15.30;99.90;;;;;;4980450;28;20037;-95
2023/03/13 06:59:08;;;;;;;22.85;21.35;;;15.10;99.90;;;;;;4983403;28;20121;-95
2023/03/13 07:01:34;;;;;;;24.05;21.90;;;15.10;99.90;;;;;;4983188;28;20026;-94
2023/03/13 07:04:01;;;;;;;23.75;22.25;;;15.00;99.90;;;;;;4983624;28;20025;-93
2023/03/13 07:06:28;;;;;;;24.30;22.63;;;15.30;99.90;;;;;;4977029;28;20030;-93
2023/03/13 07:08:55;;;;;;;24.83;22.90;;;15.20;99.90;;;;;;4983813;28;20026;-94
2023/03/13 07:11:21;;;;;;;24.27;22.58;;;15.50;99.90;;;;;;4983308;28;20109;-95
2023/03/13 07:13:48;;;;;;;24.70;23.08;;;15.60;99.90;;;;;;4984124;28;20484;-94
2023/03/13 07:16:18;;;;;;;24.50;22.88;;;15.50;99.90;;;;;;4983994;28;20391;-94
2023/03/13 07:18:44;;;;;;;24.50;22.80;;;15.50;99.90;;;;;;4982091;28;20037;-94
2023/03/13 07:21:11;;;;;;;24.05;22.48;;;15.30;99.90;;;;;;4985692;28;20026;-93
2023/03/13 07:23:38;;;;;;;23.50;21.70;;;15.40;99.90;;;;;;4982625;28;20483;-93
2023/03/13 07:26:07;;;;;;;23.23;21.55;;;15.40;99.90;;;;;;4982561;28;20549;-90
2023/03/13 07:28:34;;;;;;;22.40;20.83;;;15.10;99.90;;;;;;4985962;28;20034;-89
2023/03/13 07:31:28;;;;;;;22.00;20.23;;;15.10;99.90;;;;;;4992684;28;20028;-90
2023/03/13 07:33:55;;;;;;;22.65;20.92;;;15.10;99.90;;;;;;4985767;28;20034;-86
2023/03/13 07:36:22;;;;;;;22.58;20.92;;;15.30;99.90;;;;;;4980985;28;20022;-87
2023/03/13 07:38:49;;;;;;;22.30;20.55;;;15.60;99.90;;;;;;4981685;28;20537;-89
2023/03/13 07:41:15;;;;;;;23.40;21.42;;;15.80;99.90;;;;;;4981461;28;20022;-87
2023/03/13 07:43:42;;;;;;;22.85;21.35;;;15.80;99.90;;;;;;4981445;28;20041;-87
2023/03/13 07:46:12;;;;;;;23.63;21.67;;;15.70;99.90;;;;;;4982915;28;20022;-86
2023/03/13 07:48:40;;;;;;;23.70;21.75;;;16.00;99.90;;;;;;4980514;28;20476;-85
2023/03/13 07:51:13;;;;;;;23.63;21.98;;;15.80;99.90;;;;;;4973338;28;20058;-88
2023/03/13 07:53:40;;;;;;;23.83;22.33;;;15.50;99.90;;;;;;4977724;28;20038;-85
2023/03/13 07:56:10;;;;;;;24.48;22.60;;;15.70;99.90;;;;;;4977740;28;20479;-87
2023/03/13 07:58:38;;;;;;;24.63;22.92;;;15.90;99.90;;;;;;4977920;28;20049;-86
2023/03/13 08:01:25;;;;;;;24.30;22.80;;;15.80;99.90;;;;;;4977838;28;20024;-86
2023/03/13 08:03:54;;;;;;;24.77;23.10;;;16.40;99.90;;;;;;4977999;28;20034;-86
2023/03/13 08:06:24;;;;;;;24.00;22.67;;;16.20;99.90;;;;;;4977670;28;20101;-86
2023/03/13 08:08:51;;;;;;;24.90;23.20;;;16.40;99.90;;;;;;4983996;28;20388;-85
2023/03/13 08:11:23;;;;;;;24.88;23.08;;;16.40;99.90;;;;;;4977776;28;20077;-86
2023/03/13 08:13:51;;;;;;;24.33;22.90;;;16.50;99.90;;;;;;4977618;28;20080;-85
2023/03/13 08:16:23;;;;;;;25.25;23.42;;;16.20;99.90;;;;;;4977651;28;20427;-86
2023/03/13 08:18:53;;;;;;;25.10;23.60;;;16.40;99.90;;;;;;4993592;28;20030;-85
2023/03/13 08:21:26;;;;;;;25.02;23.40;;;16.40;99.90;;;;;;4994829;28;20093;-71
2023/03/13 08:23:55;;;;;;;24.60;23.25;;;16.10;99.90;;;;;;4995764;28;20038;-80
2023/03/13 08:26:24;;;;;;;25.25;23.33;;;16.20;99.90;;;;;;5008115;28;20018;-79
2023/03/13 08:28:56;;;;;;;25.35;23.77;;;16.00;99.90;;;;;;5012274;28;20040;-79
2023/03/13 08:31:29;;;;;;;25.92;24.20;;;16.30;99.90;;;;;;4996434;28;20034;-79
2023/03/13 08:33:55;;;;;;;25.40;24.00;;;16.60;99.90;;;;;;5013637;28;20033;-79
2023/03/13 08:36:36;;;;;;;25.40;23.80;;;16.20;99.90;;;;;;5012408;28;20018;-80
2023/03/13 08:39:06;;;;;;;25.60;23.80;;;16.20;99.90;;;;;;5012434;28;20026;-79
2023/03/13 08:41:35;;;;;;;25.40;24.00;;;16.40;99.90;;;;;;5015244;28;20057;-92
2023/03/13 08:46:37;;;;;;;25.42;24.02;;;16.40;99.90;;;;;;4975974;28;20100;-92
2023/03/13 08:49:05;;;;;;;25.50;23.90;;;16.50;99.90;;;;;;4960441;28;20039;-89
2023/03/13 08:51:32;;;;;;;25.85;24.25;;;16.40;99.90;;;;;;4945881;28;20033;-88
2023/03/13 08:53:58;;;;;;;25.90;24.45;;;16.40;99.90;;;;;;4960705;28;20066;-89
2023/03/13 08:56:42;;;;;;;26.35;24.75;;;16.30;99.90;;;;;;4944846;28;20027;-90
2023/03/13 08:59:09;;;;;;;25.92;24.33;;;16.30;99.90;;;;;;4961611;28;20030;-90
2023/03/13 09:01:36;;;;;;;25.30;23.98;;;16.40;99.90;;;;;;4946791;28;20031;-89
2023/03/13 09:04:04;;;;;;;26.20;24.38;;;16.50;99.90;;;;;;4962422;28;20094;-89
2023/03/13 09:06:35;;;;;;;26.95;25.35;;;16.50;99.90;;;;;;4944926;29;20023;-91
2023/03/13 09:09:02;;;;;;;26.25;24.52;;;16.30;99.90;;;;;;4959678;29;20091;-87
2023/03/13 09:11:28;;;;;;;26.60;24.90;;;16.10;99.90;;;;;;4959297;29;20095;-90
2023/03/13 09:13:58;;;;;;;26.17;24.67;;;16.20;99.90;;;;;;4958943;28;20031;-93
2023/03/13 09:16:27;;;;;;;25.65;24.15;;;16.20;99.90;;;;;;4941393;29;20058;-89
2023/03/13 09:18:55;;;;;;;25.58;24.08;;;16.50;99.90;;;;;;4957122;29;20031;-89
2023/03/13 09:21:24;;;;;;;25.98;24.33;;;16.50;99.90;;;;;;4957216;29;20031;-86
2023/03/13 09:23:51;;;;;;;26.20;24.70;;;16.10;99.90;;;;;;4952503;28;20037;-85
2023/03/13 09:26:19;;;;;;;25.90;24.30;;;15.90;99.90;;;;;;4944062;28;20023;-85
2023/03/13 09:28:45;;;;;;;26.17;24.48;;;15.80;99.90;;;;;;4945103;29;20078;-85
2023/03/13 09:31:18;;;;;;;26.02;24.42;;;16.00;99.90;;;;;;4956746;29;20135;-85
2023/03/13 09:33:47;;;;;;;25.63;24.23;;;16.10;99.90;;;;;;4960227;28;20035;-93
2023/03/13 09:36:18;;;;;;;26.02;24.40;;;16.00;99.90;;;;;;4941720;29;20028;-89
2023/03/13 09:38:44;;;;;;;25.27;23.88;;;15.90;99.90;;;;;;4958560;29;20042;-84
2023/03/13 09:41:21;;;;;;;26.35;24.50;;;16.20;99.90;;;;;;4958755;29;20105;-85
2023/03/13 09:44:08;;;;;;;25.60;24.20;;;16.50;99.90;;;;;;4942871;29;20042;-85
2023/03/13 09:46:52;;;;;;;25.95;24.38;;;16.60;99.90;;;;;;5114448;27;20380;-91
2023/03/13 09:49:38;;;;;;;26.40;24.70;;;16.20;99.90;;;;;;5096398;28;20031;-86
2023/03/13 09:52:22;;;;;;;26.33;24.70;;;16.30;99.90;;;;;;5107295;28;20024;-87
2023/03/13 09:55:03;;;;;;;26.57;25.07;;;16.50;99.90;;;;;;5109367;28;20078;-80
2023/03/13 09:57:48;;;;;;;26.20;24.75;;;16.50;99.90;;;;;;5092292;28;20032;-79
2023/03/13 10:00:22;;;;;;;26.33;24.80;;;16.50;99.90;;;;;;5093484;28;20027;-78
2023/03/13 10:03:07;;;;;;;26.38;24.60;;;16.70;99.90;;;;;;5092123;28;20035;-79
2023/03/13 10:05:34;;;;;;;26.40;24.80;;;16.60;99.90;;;;;;5108766;28;20119;-77
2023/03/13 10:08:18;;;;;;;26.17;24.58;;;16.70;99.90;;;;;;5093161;28;20031;-79
2023/03/13 10:11:08;;;;;;;26.55;24.95;;;16.60;99.90;;;;;;5112230;28;20060;-79
2023/03/13 10:13:38;;;;;;;27.10;25.20;;;16.50;99.90;;;;;;5112741;28;20053;-87
2023/03/13 10:16:19;;;;;;;26.73;25.00;;;16.50;99.90;;;;;;5096113;28;20032;-89
2023/03/13 10:18:51;;;;;;;27.30;25.30;;;16.50;99.90;;;;;;5096306;28;20035;-88
2023/03/13 10:21:21;;;;;;;26.20;24.70;;;16.20;99.90;;;;;;5095830;28;20540;-83
2023/03/13 10:24:07;;;;;;;25.95;24.25;;;16.10;99.90;;;;;;5096234;28;20026;-89
2023/03/13 10:26:35;;;;;;;26.10;24.20;;;16.20;99.90;;;;;;5095530;28;20048;-91
2023/03/13 10:29:25;;;;;;;25.05;23.75;;;16.30;99.90;;;;;;5092241;28;20025;-85
2023/03/13 10:32:06;;;;;;;25.92;24.30;;;16.40;99.90;;;;;;5075036;28;20036;-85
2023/03/13 10:34:56;;;;;;;25.77;24.15;;;16.60;99.90;;;;;;5075332;28;20028;-92
2023/03/13 10:37:26;;;;;;;25.50;24.00;;;16.80;99.90;;;;;;5075242;28;20123;-86
2023/03/13 10:39:53;;;;;;;26.15;24.35;;;16.60;99.90;;;;;;5075359;28;20024;-85
2023/03/13 10:42:32;;;;;;;25.67;24.08;;;16.60;99.90;;;;;;5074957;28;20028;-90
2023/03/13 10:45:39;;;;;;;24.75;23.45;;;16.40;99.90;;;;;;5075274;27;20340;-87
2023/03/13 10:48:23;;;;;;;25.67;24.02;;;16.20;99.90;;;;;;5055587;28;20123;-87
2023/03/13 10:50:52;;;;;;;26.48;24.73;;;16.30;99.90;;;;;;5071422;28;20029;-87
2023/03/13 10:53:30;;;;;;;25.42;24.05;;;16.40;99.90;;;;;;5055586;28;20043;-88
2023/03/13 10:56:09;;;;;;;25.77;24.38;;;16.40;99.90;;;;;;5072564;28;20028;-85
2023/03/13 10:58:43;;;;;;;26.67;24.73;;;16.60;99.90;;;;;;5072723;28;20078;-86
2023/03/13 11:01:22;;;;;;;25.50;24.05;;;16.50;99.90;;;;;;5055684;28;20124;-85
2023/03/13 11:03:50;;;;;;;25.30;23.90;;;16.30;99.90;;;;;;5072377;28;20082;-87
2023/03/13 11:06:30;;;;;;;25.65;23.77;;;16.40;99.90;;;;;;5055632;28;20071;-84
2023/03/13 11:09:15;;;;;;;24.83;23.52;;;16.30;99.90;;;;;;5072409;28;20028;-86
2023/03/13 11:11:54;;;;;;;25.25;23.85;;;16.30;99.90;;;;;;5055874;28;20036;-85
2023/03/13 11:14:22;;;;;;;25.17;23.88;;;16.40;99.90;;;;;;5072059;28;20029;-83
2023/03/13 11:16:58;;;;;;;25.80;24.17;;;16.20;99.90;;;;;;5055118;28;20049;-85
2023/03/13 11:19:42;;;;;;;25.65;24.20;;;16.20;99.90;;;;;;5069926;28;20027;-85
2023/03/13 11:22:47;;;;;;;25.48;24.08;;;16.20;99.90;;;;;;5069899;28;20049;-85
2023/03/13 11:25:32;;;;;;;25.58;23.95;;;16.10;99.90;;;;;;5049503;28;20505;-85
2023/03/13 11:28:37;;;;;;;25.40;24.00;;;16.10;99.90;;;;;;5069884;28;20032;-85
2023/03/13 11:31:18;;;;;;;25.58;24.00;;;16.20;99.90;;;;;;5035474;28;20139;-84
2023/03/13 11:33:56;;;;;;;25.90;24.20;;;16.20;99.90;;;;;;5034934;28;20600;-84
2023/03/13 11:36:42;;;;;;;26.02;24.27;;;16.30;99.90;;;;;;5050776;28;20032;-85
2023/03/13 11:39:42;;;;;;;25.48;23.83;;;16.40;99.90;;;;;;5051873;28;20029;-85
2023/03/13 11:42:29;;;;;;;25.00;23.48;;;16.40;99.90;;;;;;5015690;28;20037;-85
2023/03/13 11:45:32;;;;;;;24.95;23.55;;;16.20;99.90;;;;;;5031381;28;20049;-85
2023/03/13 11:48:12;;;;;;;24.83;23.30;;;16.30;99.90;;;;;;5032077;28;20044;-85
2023/03/13 11:50:50;;;;;;;25.00;23.35;;;16.40;99.90;;;;;;5031778;28;20035;-84
2023/03/13 11:54:01;;;;;;;25.15;23.65;;;16.40;99.90;;;;;;5031837;28;20156;-85
2023/03/13 11:56:50;;;;;;;24.65;23.17;;;16.30;99.90;;;;;;4990143;28;20029;-85
2023/03/13 11:59:25;;;;;;;24.95;23.55;;;16.20;99.90;;;;;;4975545;28;20083;-85
2023/03/13 12:02:34;;;;;;;25.40;23.90;;;16.20;99.90;;;;;;5018486;28;20034;-85
2023/03/13 12:05:06;;;;;;;26.17;24.35;;;16.40;99.90;;;;;;4981338;28;20044;-85
2023/03/13 12:07:50;;;;;;;26.02;24.52;;;16.30;99.90;;;;;;5033713;28;20042;-84
2023/03/13 12:10:16;;;;;;;26.52;24.83;;;16.50;99.90;;;;;;5035632;28;20040;-84
2023/03/13 12:12:49;;;;;;;25.63;24.25;;;16.60;99.90;;;;;;5035513;28;20558;-85
2023/03/13 12:15:27;;;;;;;26.50;25.05;;;16.50;99.90;;;;;;5052554;28;20033;-86
2023/03/13 12:18:07;;;;;;;26.45;24.98;;;16.60;99.90;;;;;;5038098;28;20026;-86
2023/03/13 12:20:46;;;;;;;26.45;24.75;;;16.60;99.90;;;;;;5037949;28;20052;-87
2023/03/13 12:23:23;;;;;;;26.73;25.23;;;16.50;99.90;;;;;;5036658;28;20033;-84
2023/03/13 12:26:01;;;;;;;26.52;24.85;;;16.40;99.90;;;;;;5042145;28;20498;-82
2023/03/13 12:28:56;;;;;;;26.38;24.95;;;16.50;99.90;;;;;;5021064;28;20079;-85
2023/03/13 12:31:41;;;;;;;26.30;24.80;;;16.60;99.90;;;;;;5021346;28;20029;-88
2023/03/13 12:34:24;;;;;;;26.00;24.60;;;16.70;99.90;;;;;;5021101;28;20037;-85
2023/03/13 12:36:59;;;;;;;25.83;24.42;;;16.80;99.90;;;;;;5020890;28;20037;-85
2023/03/13 12:39:35;;;;;;;25.98;24.58;;;17.10;99.90;;;;;;5020853;28;20088;-84
2023/03/13 12:42:12;;;;;;;25.55;24.15;;;17.20;99.90;;;;;;5020751;28;20394;-84
2023/03/13 12:44:39;;;;;;;25.42;23.92;;;17.10;99.90;;;;;;5029796;28;20137;-84
2023/03/13 12:47:31;;;;;;;27.02;25.15;;;16.80;99.10;;;;;;5020726;28;20080;-85
2023/03/13 12:50:03;;;;;;;26.27;24.85;;;16.80;99.90;;;;;;4986365;28;20065;-85
2023/03/13 12:52:57;;;;;;;26.48;24.88;;;17.00;99.90;;;;;;5021033;28;20030;-85
2023/03/13 12:55:55;;;;;;;26.60;25.10;;;17.30;99.90;;;;;;5020664;28;20053;-85
2023/03/13 12:58:48;;;;;;;26.25;24.80;;;17.30;99.90;;;;;;5020503;28;20031;-84
2023/03/13 13:01:29;;;;;;;27.08;25.30;;;17.20;99.90;;;;;;5020845;28;20029;-90
2023/03/13 13:04:10;;;;;;;26.17;24.67;;;17.20;99.90;;;;;;5021021;28;20038;-79
2023/03/13 13:07:03;;;;;;;26.50;24.90;;;17.20;99.90;;;;;;5037980;28;20025;-88
2023/03/13 13:09:29;;;;;;;26.48;24.88;;;17.20;99.90;;;;;;5020308;28;20083;-88
2023/03/13 13:12:18;;;;;;;26.77;25.20;;;16.90;99.90;;;;;;5020657;28;20047;-82
2023/03/13 13:14:48;;;;;;;27.08;25.60;;;16.90;99.90;;;;;;5037642;28;20151;-88
2023/03/13 13:17:39;;;;;;;26.58;25.17;;;17.10;99.90;;;;;;5020195;28;20079;-88
2023/03/13 13:20:36;;;;;;;26.75;25.23;;;17.00;99.90;;;;;;5036718;28;20033;-93
2023/03/13 13:23:21;;;;;;;26.27;24.80;;;17.00;99.90;;;;;;5018383;28;20025;-89
2023/03/13 13:25:52;;;;;;;26.25;24.55;;;17.10;99.90;;;;;;5034960;28;20038;-93
2023/03/13 13:28:20;;;;;;;25.80;24.30;;;17.10;99.90;;;;;;5018486;28;20029;-90
2023/03/13 13:30:52;;;;;;;27.42;25.45;;;17.20;99.90;;;;;;5034840;28;20112;-88
2023/03/13 13:33:29;;;;;;;26.02;24.63;;;17.10;99.90;;;;;;5017979;28;20105;-90
2023/03/13 13:36:08;;;;;;;26.80;25.40;;;17.10;99.90;;;;;;5034442;28;20479;-91
2023/03/13 13:38:40;;;;;;;26.73;25.17;;;17.00;99.90;;;;;;5036229;28;20040;-91
2023/03/13 13:41:19;;;;;;;26.50;24.77;;;17.00;99.90;;;;;;5019334;28;20499;-89
2023/03/13 13:43:48;;;;;;;26.73;25.10;;;17.10;99.90;;;;;;5029081;28;20048;-88
2023/03/13 13:46:31;;;;;;;25.90;24.50;;;16.70;99.90;;;;;;5058409;28;20025;-91
2023/03/13 13:49:07;;;;;;;27.20;25.60;;;16.70;99.90;;;;;;5057559;28;20024;-91
2023/03/13 13:51:41;;;;;;;26.33;24.83;;;16.80;99.90;;;;;;5057334;28;20035;-91
2023/03/13 13:54:44;;;;;;;26.20;24.67;;;16.70;99.90;;;;;;5057143;28;20099;-92
2023/03/13 13:57:19;;;;;;;26.83;25.02;;;16.70;99.90;;;;;;5056908;28;20486;-90
2023/03/13 13:59:56;;;;;;;26.38;24.67;;;16.70;99.90;;;;;;5057205;28;20375;-90
2023/03/13 14:02:29;;;;;;;25.67;24.00;;;16.80;99.90;;;;;;5056838;28;20025;-90
2023/03/13 14:05:06;;;;;;;26.10;24.50;;;16.80;99.90;;;;;;5057017;28;20049;-88
2023/03/13 14:07:55;;;;;;;26.00;24.50;;;16.90;99.90;;;;;;5056873;28;20060;-87
2023/03/13 14:10:28;;;;;;;26.58;24.88;;;16.90;99.90;;;;;;5056750;28;20122;-89
2023/03/13 14:13:00;;;;;;;26.02;24.42;;;16.70;99.90;;;;;;5073465;28;20478;-89
2023/03/13 14:15:28;;;;;;;26.10;24.50;;;16.70;99.90;;;;;;5073483;28;20039;-88
2023/03/13 14:18:13;;;;;;;26.20;24.58;;;16.70;99.90;;;;;;5056520;28;20130;-89
2023/03/13 14:20:56;;;;;;;25.90;24.40;;;16.90;99.90;;;;;;5073318;28;20128;-88
2023/03/13 14:23:44;;;;;;;27.27;25.65;;;16.80;99.90;;;;;;5073055;28;20039;-86
2023/03/13 14:26:24;;;;;;;25.95;24.20;;;16.90;99.90;;;;;;5056371;28;20025;-89
2023/03/13 14:28:55;;;;;;;26.02;24.58;;;16.90;99.90;;;;;;5056775;28;20551;-90
2023/03/13 14:31:26;;;;;;;25.90;24.40;;;16.90;99.90;;;;;;5056600;28;20045;-88
2023/03/13 14:33:54;;;;;;;25.90;24.50;;;17.00;99.90;;;;;;5056479;28;20072;-88
2023/03/13 14:36:20;;;;;;;26.10;24.42;;;17.00;99.90;;;;;;5056512;28;20020;-90
2023/03/13 14:38:58;;;;;;;26.33;24.83;;;16.90;99.90;;;;;;5057681;28;20039;-88
2023/03/13 14:41:52;;;;;;;27.00;25.50;;;16.70;99.90;;;;;;5074800;28;20033;-86
2023/03/13 14:44:28;;;;;;;26.75;25.17;;;16.80;99.90;;;;;;5054847;28;20050;-88
2023/03/13 14:46:59;;;;;;;27.08;25.20;;;16.80;99.90;;;;;;5075764;28;20056;-89
2023/03/13 14:49:35;;;;;;;27.15;25.55;;;16.50;99.90;;;;;;5081401;23;20043;-91
2023/03/13 14:52:07;;;;;;;26.52;25.02;;;16.50;99.90;;;;;;5016203;28;20037;-85
2023/03/13 14:54:36;;;;;;;26.58;24.90;;;16.60;99.90;;;;;;5016508;28;20483;-85
2023/03/13 14:57:14;;;;;;;25.92;24.50;;;16.70;99.90;;;;;;5033030;28;20030;-84
2023/03/13 14:59:42;;;;;;;25.75;24.25;;;16.50;99.90;;;;;;5017068;28;20026;-85
2023/03/13 15:02:31;;;;;;;25.95;24.55;;;16.50;99.90;;;;;;5033272;28;20075;-85
2023/03/13 15:05:03;;;;;;;25.75;24.35;;;16.40;99.90;;;;;;5034239;28;20041;-85
2023/03/13 15:07:40;;;;;;;26.23;24.38;;;16.30;99.90;;;;;;5035315;28;20417;-85
2023/03/13 15:10:39;;;;;;;26.05;24.63;;;16.30;99.90;;;;;;5032530;28;20029;-85
2023/03/13 15:13:30;;;;;;;26.40;24.80;;;16.10;99.90;;;;;;5016494;28;20036;-85
2023/03/13 15:15:57;;;;;;;26.65;25.10;;;16.10;99.90;;;;;;5016470;28;20386;-86
2023/03/13 15:18:26;;;;;;;26.60;24.88;;;16.00;99.90;;;;;;5016184;28;20082;-85
2023/03/13 15:21:16;;;;;;;25.98;24.58;;;16.00;99.90;;;;;;5032194;28;20486;-85
2023/03/13 15:23:57;;;;;;;25.98;23.98;;;16.00;99.90;;;;;;5016042;28;20068;-87
2023/03/13 15:26:24;;;;;;;25.17;23.80;;;16.00;99.90;;;;;;5016049;28;20040;-86
2023/03/13 15:28:51;;;;;;;25.17;23.80;;;16.00;99.90;;;;;;5016017;28;20386;-87
2023/03/13 15:31:21;;;;;;;25.38;23.80;;;16.00;99.90;;;;;;5017999;28;20213;-86
2023/03/13 15:33:52;;;;;;;25.08;23.67;;;15.90;99.90;;;;;;5019923;28;20051;-90
2023/03/13 15:36:21;;;;;;;24.75;23.17;;;15.80;99.90;;;;;;5000129;28;20030;-88
2023/03/13 15:38:48;;;;;;;24.60;23.13;;;15.70;99.90;;;;;;5006284;28;20272;-85
2023/03/13 15:41:16;;;;;;;25.77;24.17;;;15.60;99.90;;;;;;5032675;28;20034;-86
2023/03/13 15:44:05;;;;;;;24.48;23.05;;;15.50;99.90;;;;;;4999840;28;20091;-88
2023/03/13 15:46:35;;;;;;;24.45;23.08;;;15.50;99.90;;;;;;5016411;28;20553;-87
2023/03/13 15:49:10;;;;;;;24.27;22.80;;;15.40;99.90;;;;;;5016185;28;20037;-85
2023/03/13 15:51:37;;;;;;;25.95;23.45;;;15.50;99.90;;;;;;5015661;28;20042;-88
2023/03/13 15:54:03;;;;;;;24.23;22.73;;;15.50;99.90;;;;;;5000199;28;20029;-88
2023/03/13 15:56:35;;;;;;;23.85;22.13;;;15.50;99.90;;;;;;5015278;28;20041;-87
2023/03/13 15:59:10;;;;;;;23.27;22.05;;;15.40;99.90;;;;;;5019252;28;20037;-87
2023/03/13 16:01:37;;;;;;;23.40;22.10;;;15.30;99.90;;;;;;5019610;28;20030;-87
2023/03/13 16:04:04;;;;;;;23.58;22.17;;;15.20;99.90;;;;;;5019374;28;20120;-87
2023/03/13 16:06:31;;;;;;;23.45;22.02;;;15.10;99.90;;;;;;5019506;28;20033;-88
2023/03/13 16:08:59;;;;;;;23.80;22.20;;;15.00;99.90;;;;;;5035819;28;20018;-89
2023/03/13 16:11:26;;;;;;;22.98;21.58;;;14.90;99.90;;;;;;5019037;28;20025;-87
2023/03/13 16:13:53;;;;;;;23.42;21.67;;;14.90;99.90;;;;;;5019218;28;20041;-88
2023/03/13 16:16:34;;;;;;;22.50;21.30;;;14.70;99.90;;;;;;5019175;28;20056;-88
2023/03/13 16:19:03;;;;;;;21.85;20.63;;;14.70;99.90;;;;;;5019069;28;20487;-88
2023/03/13 16:21:33;;;;;;;21.95;20.52;;;14.50;99.90;;;;;;5018960;28;20505;-89
2023/03/13 16:24:19;;;;;;;21.70;20.40;;;14.50;99.90;;;;;;5015425;28;20045;-89
2023/03/13 16:26:47;;;;;;;21.25;20.05;;;14.40;99.90;;;;;;4999329;28;20411;-89
2023/03/13 16:29:15;;;;;;;21.33;19.67;;;14.40;99.90;;;;;;4999324;28;20475;-89
2023/03/13 16:31:42;;;;;;;21.10;19.52;;;14.20;99.90;;;;;;5015605;28;20550;-88
2023/03/13 16:34:12;;;;;;;22.00;20.17;;;14.20;99.90;;;;;;5013726;28;20124;-89
2023/03/13 16:36:38;;;;;;;20.13;18.83;;;14.10;99.90;;;;;;5018729;28;20029;-89
2023/03/13 16:39:10;;;;;;;20.55;19.20;;;14.00;99.90;;;;;;5024040;28;20040;-92
2023/03/13 16:41:37;;;;;;;20.45;19.15;;;13.80;99.90;;;;;;5018727;28;20021;-92
2023/03/13 16:44:03;;;;;;;20.70;19.30;;;13.80;99.90;;;;;;5018571;28;20091;-91
2023/03/13 16:46:39;;;;;;;19.83;18.60;;;13.70;99.90;;;;;;5018575;28;20034;-91
2023/03/13 16:49:10;;;;;;;20.30;19.08;;;13.60;99.90;;;;;;5018636;28;20083;-91
2023/03/13 16:51:37;;;;;;;20.50;19.30;;;13.50;99.90;;;;;;5019091;28;20045;-91
2023/03/13 16:54:05;;;;;;;20.30;19.00;;;13.40;99.90;;;;;;5018525;28;20025;-92
2023/03/13 16:56:34;;;;;;;21.45;19.85;;;13.30;99.90;;;;;;5018639;28;20032;-90
2023/03/13 16:59:02;;;;;;;20.42;19.13;;;13.30;99.90;;;;;;5018541;28;20022;-91
2023/03/13 17:01:32;;;;;;;20.88;19.48;;;13.20;99.90;;;;;;5018446;28;20025;-92
2023/03/13 17:03:59;;;;;;;21.30;19.80;;;13.10;99.90;;;;;;5018347;28;20045;-93
2023/03/13 17:06:32;;;;;;;20.75;19.40;;;13.00;99.90;;;;;;5018372;28;20037;-91
2023/03/13 17:09:02;;;;;;;20.05;18.73;;;13.00;99.90;;;;;;5018286;28;20045;-92
2023/03/13 17:11:29;;;;;;;20.17;18.83;;;12.90;99.90;;;;;;5018313;28;20036;-91
2023/03/13 17:13:58;;;;;;;20.25;19.00;;;12.80;99.90;;;;;;5018038;28;20075;-90
2023/03/13 17:16:34;;;;;;;20.35;18.75;;;12.80;99.90;;;;;;5017988;28;20027;-91
2023/03/13 17:19:02;;;;;;;20.65;19.25;;;12.70;99.90;;;;;;5018294;28;20083;-91
2023/03/13 17:21:33;;;;;;;20.80;19.40;;;12.70;99.90;;;;;;5017999;28;20030;-92
2023/03/13 17:24:01;;;;;;;22.42;20.63;;;12.60;99.90;;;;;;5017911;28;20124;-92
2023/03/13 17:26:32;;;;;;;22.50;20.80;;;12.60;99.90;;;;;;5018264;28;20025;-91
2023/03/13 17:29:06;;;;;;;23.60;21.48;;;12.60;99.90;;;;;;5017876;28;20029;-92
2023/03/13 17:31:37;;;;;;;24.35;22.13;;;12.50;99.90;;;;;;5017831;28;20076;-91
2023/03/13 17:34:08;;;;;;;25.67;23.27;;;12.50;99.90;;;;;;5017738;28;20041;-92
2023/03/13 17:36:35;;;;;;;27.33;24.27;;;12.40;99.90;;;;;;5017687;28;20395;-90
2023/03/13 17:39:04;;;;;;;29.45;24.67;;;12.30;99.90;;;;;;5017703;28;20501;-90
2023/03/13 17:41:34;;;;;;;26.83;24.13;;;12.30;99.90;;;;;;5017819;28;20030;-90
2023/03/13 17:44:02;;;;;;;34.78;29.83;;;12.20;99.90;;;;;;5017516;28;20033;-91
2023/03/13 17:46:46;;;;;;;32.20;28.60;;;12.10;99.90;;;;;;5017473;28;20107;-92
2023/03/13 17:49:15;;;;;;;31.23;27.97;;;12.10;99.90;;;;;;5017608;28;20033;-91
2023/03/13 17:51:44;;;;;;;27.42;24.63;;;11.90;99.90;;;;;;5017354;28;20041;-91
2023/03/13 17:54:12;;;;;;;65.85;38.70;;;11.80;99.90;;;;;;5017107;28;20033;-92
2023/03/13 17:56:39;;;;;;;51.63;33.72;;;11.90;99.90;;;;;;5017572;28;20022;-91
2023/03/13 17:59:11;;;;;;;115.50;55.83;;;11.80;99.90;;;;;;5017467;28;20044;-91
2023/03/13 18:01:38;;;;;;;131.95;65.50;;;11.90;99.90;;;;;;5017598;28;20143;-90
2023/03/13 18:04:04;;;;;;;202.88;84.50;;;11.90;99.90;;;;;;5017303;28;20438;-90
2023/03/13 18:06:44;;;;;;;207.48;88.72;;;12.00;99.90;;;;;;5017342;28;20083;-90
2023/03/13 18:09:19;;;;;;;218.90;91.90;;;12.00;99.90;;;;;;5017307;28;20497;-91
2023/03/13 18:11:47;;;;;;;205.73;84.57;;;11.90;99.90;;;;;;5017579;28;20104;-91
2023/03/13 18:14:14;;;;;;;180.55;78.88;;;11.90;99.90;;;;;;5017366;28;20041;-90
2023/03/13 18:16:46;;;;;;;166.10;77.30;;;11.80;99.90;;;;;;5017693;28;20028;-90
2023/03/13 18:19:20;;;;;;;151.68;73.75;;;11.80;99.90;;;;;;5034534;28;20033;-92
2023/03/13 18:21:49;;;;;;;140.75;67.18;;;11.70;99.90;;;;;;5018808;28;20025;-91
2023/03/13 18:24:16;;;;;;;134.00;62.85;;;11.70;99.90;;;;;;5017034;28;20033;-90
2023/03/13 18:26:44;;;;;;;119.57;58.00;;;11.70;99.90;;;;;;5017024;28;20483;-90
2023/03/13 18:29:25;;;;;;;95.47;50.15;;;11.50;99.90;;;;;;5033480;28;20104;-90
2023/03/13 18:31:54;;;;;;;39.50;31.48;;;11.40;99.90;;;;;;5016880;28;20124;-92
2023/03/13 18:34:21;;;;;;;36.50;30.40;;;11.40;99.90;;;;;;5016741;28;20025;-91
2023/03/13 18:36:48;;;;;;;32.60;29.20;;;11.40;99.90;;;;;;5016810;28;20034;-92
2023/03/13 18:39:16;;;;;;;30.33;27.00;;;11.40;99.90;;;;;;5016989;28;20028;-91
2023/03/13 18:41:48;;;;;;;36.20;29.73;;;11.30;99.90;;;;;;5033480;28;20033;-91
2023/03/13 18:44:17;;;;;;;28.95;26.13;;;11.20;99.90;;;;;;5016774;28;20041;-92
2023/03/13 18:46:44;;;;;;;28.58;26.17;;;11.20;99.90;;;;;;5016724;28;20113;-91
2023/03/13 18:49:18;;;;;;;29.10;26.33;;;11.10;99.90;;;;;;5014042;28;20109;-92
2023/03/13 18:51:47;;;;;;;28.50;25.67;;;11.10;99.90;;;;;;4997091;28;20042;-92
2023/03/13 18:54:14;;;;;;;27.85;25.52;;;11.10;99.90;;;;;;4996751;28;20049;-90
2023/03/13 18:56:43;;;;;;;34.03;28.67;;;11.10;99.90;;;;;;4997174;28;20034;-91
2023/03/13 18:59:18;;;;;;;33.17;27.65;;;11.10;99.90;;;;;;4996912;28;20076;-90